Seaside, OR

11:20 AM PST on February 26, 2017 (GMT -0800)
ELKRIDGE | | Change Station

Elev 75 ft 46.00 °N, 123.91 °W | Updated 2 seconds ago

Overcast
Overcast
45.5 °F
Feels Like 42 °F
N
7.0
Wind Variable Wind from South

Today
High -- | Low -- °F
--% Chance of Precip.
Yesterday
High -- | Low -- °F
Precip. -- in
Pressure 29.67 in
Visibility 7.0 miles
Clouds Few 1300 ft
Mostly Cloudy 2600 ft
Overcast 3400 ft
Windchill 42 °F
Dew Point 38 °F
Humidity 76%
Rainfall 0.89 in
Snow Depth Not available.
6:59 AM 5:58 PM
New Moon, 0% visible
METAR KAST 261855Z AUTO 26003KT 7SM -RA FEW013 BKN026 OVC034 04/00 A2967 RMK AO2 RAB34 SLP047 P0001 T00440000
Pressure 29.67 in
Visibility 7.0 miles
Clouds Few 1300 ft
Mostly Cloudy 2600 ft
Overcast 3400 ft
Windchill 42 °F
Dew Point 38 °F
Humidity 76%
Rainfall 0.89 in
Snow Depth Not available.
6:59 AM 5:58 PM
New Moon, 0% visible
METAR KAST 261855Z AUTO 26003KT 7SM -RA FEW013 BKN026 OVC034 04/00 A2967 RMK AO2 RAB34 SLP047 P0001 T00440000

Get Your Daily Forecast Email!

Thanks for signing up!

Be on the lookout for a verification email in your inbox.

You'll start receiving the daily forecast at 8 AM.

×

10-Day Weather Forecast

Almanac

Astronomy

Feb. 26, 2017 Rise Set
Actual Time
Civil Twilight
Nautical Twilight
Astronomical Twilight
Moon
Length of Visible Light
Length of Day
Tomorrow will be .
, % of the Moon is Illuminated

Today's Extremes

State Highs State Lows

Community

WunderPhotos

Upload Photos

1,962,540 photos uploaded!

WunderBlog® & News

Nearby

Air Quality

  Air Quality AQ Index Pollutant
Not available.

Snow Depth

Station Depth Elevation

Earthquake Activity

City Distance Mag. Time & Date
Minimum magnitude displayed is 2.5.

Coastal Water Temperatures

Place Temperature

Stations

Nearby Weather Stations

Station Location Temp. Windchill Dew Point Humidity Wind Precip. Elev Updated Type
                   

Watches & Warnings

There are currently no watches in effect.